Aviation Digital Data Service (ADDS)

Output produced by TAFs form (0816 UTC 20 April 2014)
found at http://aviationweather.gov/adds/tafs/
 
KAEG 200531Z 2006/2106 24005KT P6SM BKN070 
     FM201600 30008KT P6SM SCT040 BKN060 
     FM201900 31014G23KT P6SM VCSH BKN100